createdAt,value
2023-04-08T00:02:25.395Z,2.47
2023-04-08T00:05:28.367Z,2.60
2023-04-08T00:08:31.681Z,2.60
2023-04-08T00:11:35.933Z,2.17
2023-04-08T00:14:38.832Z,2.60
2023-04-08T00:17:43.329Z,2.35
2023-04-08T00:20:46.488Z,2.28
2023-04-08T00:23:49.206Z,2.40
2023-04-08T00:26:53.316Z,2.72
2023-04-08T00:29:56.386Z,2.83
2023-04-08T00:32:59.274Z,2.58
2023-04-08T00:36:02.661Z,2.70
2023-04-08T00:39:06.863Z,2.05
2023-04-08T00:42:11.790Z,2.80
2023-04-08T00:45:14.719Z,2.67
2023-04-08T00:48:17.527Z,2.80
2023-04-08T00:51:20.462Z,2.70
2023-04-08T00:54:23.246Z,2.45
2023-04-08T00:57:27.529Z,2.80
2023-04-08T01:00:31.814Z,2.92
2023-04-08T01:03:40.585Z,2.63
2023-04-08T01:06:50.493Z,2.50
2023-04-08T01:09:56.473Z,2.60
2023-04-08T01:13:05.792Z,2.60
2023-04-08T01:16:12.130Z,2.70
2023-04-08T01:19:28.947Z,2.55
2023-04-08T01:22:40.561Z,2.70
2023-04-08T01:25:47.440Z,2.50
2023-04-08T01:28:52.118Z,2.70
2023-04-08T01:31:56.303Z,2.83
2023-04-08T01:35:00.300Z,2.60
2023-04-08T01:38:07.879Z,3.05
2023-04-08T01:41:12.645Z,2.50
2023-04-08T01:44:17.545Z,2.50
2023-04-08T01:47:20.725Z,2.80
2023-04-08T01:50:24.860Z,2.70
2023-04-08T01:53:27.713Z,2.67
2023-04-08T01:56:37.551Z,2.80
2023-04-08T01:59:42.121Z,2.88
2023-04-08T02:02:47.316Z,2.65
2023-04-08T02:05:50.767Z,2.60
2023-04-08T02:08:54.384Z,2.80
2023-04-08T02:11:58.972Z,2.90
2023-04-08T02:15:02.144Z,3.08
2023-04-08T02:18:12.518Z,2.92
2023-04-08T02:21:16.839Z,2.58
2023-04-08T02:24:21.167Z,2.97
2023-04-08T02:27:27.969Z,2.78
2023-04-08T02:30:32.371Z,2.40
2023-04-08T02:33:37.062Z,2.80
2023-04-08T02:36:41.070Z,2.60
2023-04-08T02:39:43.891Z,2.78
2023-04-08T02:42:48.938Z,2.67
2023-04-08T02:45:51.744Z,2.88
2023-04-08T02:48:54.916Z,3.10
2023-04-08T02:51:57.700Z,2.95
2023-04-08T02:55:00.624Z,2.70
2023-04-08T02:58:04.757Z,2.83
2023-04-08T03:01:10.051Z,2.80
2023-04-08T03:04:12.977Z,2.90
2023-04-08T03:07:15.735Z,3.17
2023-04-08T03:10:18.543Z,2.83
2023-04-08T03:13:22.785Z,3.17
2023-04-08T03:16:25.754Z,2.97
2023-04-08T03:19:28.590Z,2.90
2023-04-08T03:22:31.378Z,3.13
2023-04-08T03:25:34.208Z,3.00
2023-04-08T03:28:38.460Z,2.92
2023-04-08T03:31:41.530Z,3.13
2023-04-08T03:34:44.298Z,3.00
2023-04-08T03:37:47.190Z,2.63
2023-04-08T03:40:49.942Z,3.20
2023-04-08T03:43:54.031Z,2.70
2023-04-08T03:46:56.854Z,3.00
2023-04-08T03:49:59.619Z,3.22
2023-04-08T03:53:02.397Z,2.97
2023-04-08T03:56:05.474Z,3.05
2023-04-08T03:59:09.637Z,2.55
2023-04-08T04:02:12.503Z,2.88
2023-04-08T04:05:15.423Z,3.40
2023-04-08T04:08:18.385Z,2.80
2023-04-08T04:11:21.364Z,3.60
2023-04-08T04:14:25.738Z,3.30
2023-04-08T04:17:28.534Z,3.45
2023-04-08T04:20:31.431Z,3.47
2023-04-08T04:23:34.460Z,3.33
2023-04-08T04:26:37.233Z,3.58
2023-04-08T04:29:41.342Z,3.50
2023-04-08T04:32:44.273Z,3.40
2023-04-08T04:35:47.107Z,3.30
2023-04-08T04:38:50.921Z,2.97
2023-04-08T04:41:53.737Z,2.90
2023-04-08T04:44:58.856Z,3.80
2023-04-08T04:48:01.701Z,3.72
2023-04-08T04:51:04.639Z,3.15
2023-04-08T04:54:07.415Z,3.58
2023-04-08T04:57:11.032Z,2.97
2023-04-08T05:00:15.731Z,3.60
2023-04-08T05:03:18.672Z,3.33
2023-04-08T05:06:21.686Z,3.22
2023-04-08T05:09:24.428Z,3.60
2023-04-08T05:12:28.140Z,3.53
2023-04-08T05:15:33.548Z,3.08
2023-04-08T05:18:36.632Z,3.90
2023-04-08T05:21:39.401Z,3.20
2023-04-08T05:24:42.170Z,3.63
2023-04-08T05:27:44.917Z,3.88
2023-04-08T05:30:52.052Z,3.35
2023-04-08T05:33:54.985Z,3.67
2023-04-08T05:36:57.763Z,3.47
2023-04-08T05:40:00.602Z,3.33
2023-04-08T05:43:03.336Z,3.47
2023-04-08T05:46:11.598Z,3.72
2023-04-08T05:49:14.380Z,3.10
2023-04-08T05:52:17.525Z,3.42
2023-04-08T05:55:20.760Z,3.50
2023-04-08T05:58:23.491Z,3.40
2023-04-08T06:01:27.870Z,3.70
2023-04-08T06:04:30.741Z,3.67
2023-04-08T06:07:33.660Z,3.40
2023-04-08T06:10:36.439Z,3.72
2023-04-08T06:13:39.285Z,3.72
2023-04-08T06:16:43.562Z,3.63
2023-04-08T06:19:46.396Z,3.30
2023-04-08T06:22:49.176Z,3.67
2023-04-08T06:25:52.220Z,3.83
2023-04-08T06:28:55.001Z,3.85
2023-04-08T06:31:59.147Z,4.05
2023-04-08T06:35:01.950Z,3.83
2023-04-08T06:38:04.753Z,3.78
2023-04-08T06:41:08.142Z,3.97
2023-04-08T06:44:11.112Z,4.00
2023-04-08T06:47:16.498Z,3.58
2023-04-08T06:50:19.474Z,3.58
2023-04-08T06:53:23.748Z,3.90
2023-04-08T06:56:26.644Z,3.78
2023-04-08T06:59:30.443Z,3.60
2023-04-08T07:02:34.641Z,4.05
2023-04-08T07:05:38.585Z,4.13
2023-04-08T07:08:41.548Z,3.75
2023-04-08T07:11:44.297Z,3.97
2023-04-08T07:14:47.087Z,3.80
2023-04-08T07:17:51.685Z,4.10
2023-04-08T07:20:55.043Z,3.80
2023-04-08T07:23:57.821Z,3.85
2023-04-08T07:27:00.610Z,3.55
2023-04-08T07:30:03.435Z,3.38
2023-04-08T07:33:07.609Z,3.60
2023-04-08T07:36:11.476Z,3.60
2023-04-08T07:39:14.227Z,3.65
2023-04-08T07:42:16.971Z,4.07
2023-04-08T07:45:19.811Z,3.90
2023-04-08T07:48:24.004Z,3.47
2023-04-08T07:51:27.706Z,3.50
2023-04-08T07:54:34.188Z,3.85
2023-04-08T07:57:36.997Z,3.83
2023-04-08T08:00:40.836Z,4.25
2023-04-08T08:03:45.853Z,3.78
2023-04-08T08:06:48.857Z,4.13
2023-04-08T08:09:51.639Z,3.70
2023-04-08T08:12:54.435Z,4.13
2023-04-08T08:15:57.299Z,3.60
2023-04-08T08:19:01.723Z,3.97
2023-04-08T08:22:04.521Z,4.00
2023-04-08T08:25:09.926Z,4.07
2023-04-08T08:28:12.833Z,3.90
2023-04-08T08:31:15.739Z,3.90
2023-04-08T08:34:20.059Z,4.28
2023-04-08T08:37:22.891Z,5.15
2023-04-08T08:40:25.762Z,5.10
2023-04-08T08:43:30.088Z,5.55
2023-04-08T08:46:33.142Z,5.10
2023-04-08T08:49:37.424Z,5.30
2023-04-08T08:52:40.208Z,5.10
2023-04-08T08:58:49.211Z,5.68
2023-04-08T09:01:52.094Z,6.68
2023-04-08T09:05:01.195Z,6.45
2023-04-08T09:08:04.420Z,6.15
2023-04-08T09:11:14.998Z,6.28
2023-04-08T09:14:22.546Z,6.22
2023-04-08T09:17:36.220Z,17.02
2023-04-08T09:20:53.434Z,15.90
2023-04-08T09:24:06.565Z,23.05
2023-04-08T09:27:12.381Z,16.05
2023-04-08T09:30:15.535Z,21.48
2023-04-08T09:33:18.282Z,35.78
2023-04-08T09:36:22.518Z,47.17
2023-04-08T09:39:25.500Z,44.90
2023-04-08T09:42:28.606Z,43.65
2023-04-08T09:45:34.844Z,39.50
2023-04-08T09:48:42.759Z,42.40
2023-04-08T09:51:57.602Z,47.65
2023-04-08T09:55:03.848Z,49.90
2023-04-08T09:58:12.634Z,43.72
2023-04-08T10:01:16.381Z,42.50
2023-04-08T10:04:22.566Z,43.70
2023-04-08T10:07:27.259Z,39.15
2023-04-08T10:10:30.251Z,41.20
2023-04-08T10:13:34.829Z,37.85
2023-04-08T10:16:38.870Z,38.67
2023-04-08T10:19:42.073Z,38.42
2023-04-08T10:22:49.977Z,39.85
2023-04-08T10:25:52.778Z,38.47
2023-04-08T10:28:55.489Z,37.53
2023-04-08T10:31:58.487Z,37.17
2023-04-08T10:35:01.610Z,36.88
2023-04-08T10:38:05.811Z,35.25
2023-04-08T10:41:08.666Z,34.85
2023-04-08T10:44:18.038Z,35.05
2023-04-08T10:47:28.411Z,34.22
2023-04-08T10:50:32.323Z,34.38
2023-04-08T10:53:37.833Z,34.17
2023-04-08T10:56:46.483Z,31.98
2023-04-08T10:59:49.275Z,31.88
2023-04-08T11:02:52.150Z,31.33
2023-04-08T11:05:58.939Z,30.75
2023-04-08T11:09:04.201Z,31.98
2023-04-08T11:12:07.089Z,30.42
2023-04-08T11:15:11.116Z,32.50
2023-04-08T11:18:14.642Z,30.55
2023-04-08T11:21:18.382Z,28.75
2023-04-08T11:24:23.512Z,29.35
2023-04-08T11:27:27.083Z,28.52
2023-04-08T11:30:31.160Z,29.20
2023-04-08T11:33:35.058Z,28.77
2023-04-08T11:36:37.911Z,27.45
2023-04-08T11:39:44.078Z,28.73
2023-04-08T11:42:47.226Z,29.30
2023-04-08T11:45:50.316Z,27.13
2023-04-08T11:49:04.329Z,27.38
2023-04-08T11:52:07.524Z,26.45
2023-04-08T11:55:12.564Z,26.40
2023-04-08T11:58:15.860Z,27.05
2023-04-08T12:01:19.092Z,27.33
2023-04-08T12:04:22.040Z,27.48
2023-04-08T12:07:24.877Z,26.60
2023-04-08T12:10:29.126Z,26.65
2023-04-08T12:13:32.415Z,25.77
2023-04-08T12:16:35.390Z,26.52
2023-04-08T12:19:38.704Z,25.65
2023-04-08T12:22:41.703Z,25.10
2023-04-08T12:25:45.828Z,24.42
2023-04-08T12:28:48.558Z,23.73
2023-04-08T12:31:51.659Z,24.17
2023-04-08T12:34:54.598Z,24.23
2023-04-08T12:37:57.375Z,24.67
2023-04-08T12:41:01.547Z,24.33
2023-04-08T12:44:04.647Z,23.55
2023-04-08T12:47:07.471Z,23.30
2023-04-08T12:50:11.276Z,24.85
2023-04-08T12:53:14.099Z,24.27
2023-04-08T12:56:18.404Z,23.85
2023-04-08T12:59:21.173Z,23.65
2023-04-08T13:02:25.556Z,21.83
2023-04-08T13:05:41.906Z,23.33
2023-04-08T13:08:45.726Z,22.17
2023-04-08T13:11:50.316Z,21.13
2023-04-08T13:14:53.116Z,21.23
2023-04-08T13:17:56.184Z,23.27
2023-04-08T13:20:59.153Z,22.80
2023-04-08T13:24:02.238Z,21.83
2023-04-08T13:27:06.566Z,23.13
2023-04-08T13:30:10.587Z,23.30
2023-04-08T13:33:13.361Z,22.13
2023-04-08T13:36:16.124Z,22.40
2023-04-08T13:39:18.993Z,21.63
2023-04-08T13:42:23.461Z,20.92
2023-04-08T13:45:26.568Z,22.10
2023-04-08T13:48:29.307Z,22.10
2023-04-08T13:51:32.052Z,21.15
2023-04-08T13:54:34.836Z,20.63
2023-04-08T13:57:39.034Z,20.05
2023-04-08T14:00:41.838Z,20.25
2023-04-08T14:03:44.603Z,19.73
2023-04-08T14:06:47.402Z,20.45
2023-04-08T14:09:50.297Z,20.00
2023-04-08T14:12:54.455Z,18.65
2023-04-08T14:15:58.420Z,19.15
2023-04-08T14:19:01.296Z,18.08
2023-04-08T14:22:04.038Z,18.85
2023-04-08T14:25:07.138Z,17.75
2023-04-08T14:28:11.361Z,18.20
2023-04-08T14:31:14.170Z,18.25
2023-04-08T14:34:16.888Z,18.80
2023-04-08T14:37:19.624Z,17.48
2023-04-08T14:40:22.428Z,18.52
2023-04-08T14:43:26.676Z,17.88
2023-04-08T14:46:29.596Z,19.00
2023-04-08T14:49:32.347Z,17.42
2023-04-08T14:52:35.402Z,17.50
2023-04-08T14:55:38.532Z,17.17
2023-04-08T14:58:42.682Z,17.52
2023-04-08T15:01:45.888Z,16.25
2023-04-08T15:04:48.805Z,17.45
2023-04-08T15:07:51.711Z,16.83
2023-04-08T15:10:54.561Z,16.33
2023-04-08T15:13:58.735Z,17.88
2023-04-08T15:17:01.556Z,17.00
2023-04-08T15:20:04.681Z,16.70
2023-04-08T15:23:07.887Z,16.70
2023-04-08T15:26:11.345Z,16.02
2023-04-08T15:29:15.582Z,16.50
2023-04-08T15:32:18.493Z,16.02
2023-04-08T15:35:21.246Z,15.88
2023-04-08T15:38:24.083Z,15.95
2023-04-08T15:41:27.129Z,17.52
2023-04-08T15:44:33.466Z,15.13
2023-04-08T15:47:36.754Z,15.30
2023-04-08T15:50:39.835Z,15.75
2023-04-08T15:53:42.903Z,14.82
2023-04-08T15:56:46.616Z,15.32
2023-04-08T15:59:50.757Z,15.52
2023-04-08T16:02:53.687Z,15.40
2023-04-08T16:05:56.607Z,15.00
2023-04-08T16:08:59.316Z,14.38
2023-04-08T16:12:02.621Z,14.90
2023-04-08T16:15:08.411Z,14.93
2023-04-08T16:18:11.524Z,14.70
2023-04-08T16:21:14.514Z,14.07
2023-04-08T16:24:20.208Z,14.18
2023-04-08T16:27:23.316Z,13.55
2023-04-08T16:30:27.467Z,13.90
2023-04-08T16:33:30.857Z,13.98
2023-04-08T16:36:33.585Z,13.60
2023-04-08T16:39:36.527Z,13.88
2023-04-08T16:42:39.272Z,14.18
2023-04-08T16:45:43.458Z,14.45
2023-04-08T16:48:46.458Z,14.00
2023-04-08T16:51:49.466Z,13.02
2023-04-08T16:54:52.383Z,14.23
2023-04-08T16:57:55.419Z,14.30
2023-04-08T17:00:59.550Z,14.25
2023-04-08T17:04:02.447Z,13.00
2023-04-08T17:07:05.227Z,13.57
2023-04-08T17:10:09.098Z,14.82
2023-04-08T17:13:14.687Z,11.90
2023-04-08T17:16:19.508Z,13.05
2023-04-08T17:19:22.282Z,13.07
2023-04-08T17:22:25.077Z,13.07
2023-04-08T17:25:27.820Z,12.50
2023-04-08T17:28:30.583Z,12.93
2023-04-08T17:31:34.749Z,11.88
2023-04-08T17:34:37.999Z,13.40
2023-04-08T17:37:40.945Z,12.27
2023-04-08T17:40:43.738Z,12.88
2023-04-08T17:43:46.596Z,12.57
2023-04-08T17:46:50.732Z,12.02
2023-04-08T17:49:56.054Z,11.85
2023-04-08T17:52:58.841Z,11.95
2023-04-08T17:56:01.873Z,12.23
2023-04-08T17:59:04.664Z,12.63
2023-04-08T18:02:08.921Z,12.32
2023-04-08T18:05:12.597Z,10.82
2023-04-08T18:08:15.401Z,12.27
2023-04-08T18:11:18.262Z,11.23
2023-04-08T18:14:21.045Z,11.63
2023-04-08T18:17:25.240Z,11.80
2023-04-08T18:20:28.714Z,11.50
2023-04-08T18:23:31.512Z,11.55
2023-04-08T18:26:34.275Z,11.38
2023-04-08T18:29:37.068Z,11.50
2023-04-08T18:32:41.203Z,11.20
2023-04-08T18:35:44.293Z,11.20
2023-04-08T18:38:48.603Z,11.52
2023-04-08T18:41:51.341Z,11.75
2023-04-08T18:44:54.060Z,10.95
2023-04-08T18:47:58.615Z,11.23
2023-04-08T18:51:02.029Z,11.23
2023-04-08T18:54:04.957Z,10.80
2023-04-08T18:57:07.906Z,11.13
2023-04-08T19:00:11.380Z,10.68
2023-04-08T19:03:15.744Z,10.27
2023-04-08T19:06:22.378Z,10.20
2023-04-08T19:09:25.136Z,10.95
2023-04-08T19:12:29.485Z,10.98
2023-04-08T19:15:32.228Z,10.30
2023-04-08T19:18:36.400Z,10.60
2023-04-08T19:21:39.177Z,11.10
2023-04-08T19:24:41.983Z,10.27
2023-04-08T19:27:45.939Z,10.55
2023-04-08T19:30:50.558Z,10.02
2023-04-08T19:33:55.280Z,9.98
2023-04-08T19:36:58.118Z,10.27
2023-04-08T19:40:01.087Z,9.20
2023-04-08T19:43:03.858Z,9.77
2023-04-08T19:46:06.793Z,9.77
2023-04-08T19:49:10.973Z,10.40
2023-04-08T19:52:13.752Z,9.93
2023-04-08T19:55:16.918Z,9.60
2023-04-08T19:58:19.731Z,9.43
2023-04-08T20:01:22.589Z,9.65
2023-04-08T20:04:26.909Z,9.65
2023-04-08T20:07:29.792Z,10.48
2023-04-08T20:10:32.553Z,9.27
2023-04-08T20:13:35.289Z,9.10
2023-04-08T20:16:38.072Z,8.70
2023-04-08T20:19:42.235Z,9.35
2023-04-08T20:22:46.381Z,9.05
2023-04-08T20:25:49.367Z,9.52
2023-04-08T20:28:52.288Z,9.95
2023-04-08T20:31:55.482Z,8.95
2023-04-08T20:35:00.686Z,9.52
2023-04-08T20:38:03.457Z,9.27
2023-04-08T20:41:06.480Z,8.48
2023-04-08T20:44:10.535Z,9.05
2023-04-08T20:47:14.175Z,9.43
2023-04-08T20:50:18.407Z,8.93
2023-04-08T20:53:23.619Z,8.13
2023-04-08T20:56:27.533Z,8.98
2023-04-08T20:59:30.337Z,9.02
2023-04-08T21:02:33.679Z,8.77
2023-04-08T21:05:39.257Z,8.48
2023-04-08T21:08:42.035Z,8.52
2023-04-08T21:11:45.050Z,9.35
2023-04-08T21:14:47.852Z,8.50
2023-04-08T21:17:50.743Z,8.43
2023-04-08T21:20:55.059Z,8.45
2023-04-08T21:23:57.863Z,9.02
2023-04-08T21:27:01.309Z,8.20
2023-04-08T21:30:04.746Z,8.98
2023-04-08T21:33:07.901Z,8.15
2023-04-08T21:36:12.156Z,8.95
2023-04-08T21:39:17.505Z,8.68
2023-04-08T21:42:22.746Z,8.02
2023-04-08T21:45:25.933Z,8.00
2023-04-08T21:48:28.757Z,9.02
2023-04-08T21:51:32.929Z,8.07
2023-04-08T21:54:35.755Z,8.43
2023-04-08T21:57:39.287Z,8.10
2023-04-08T22:00:42.048Z,8.25
2023-04-08T22:03:44.913Z,8.10
2023-04-08T22:06:49.783Z,7.70
2023-04-08T22:09:54.480Z,8.27
2023-04-08T22:12:57.396Z,7.75
2023-04-08T22:16:00.154Z,8.38
2023-04-08T22:19:02.937Z,7.90
2023-04-08T22:22:07.094Z,7.20
2023-04-08T22:25:10.567Z,7.88
2023-04-08T22:28:13.376Z,7.22
2023-04-08T22:31:16.296Z,7.82
2023-04-08T22:34:19.185Z,7.75
2023-04-08T22:37:23.334Z,7.47
2023-04-08T22:40:26.158Z,7.47
2023-04-08T22:43:28.990Z,8.45
2023-04-08T22:46:32.038Z,7.35
2023-04-08T22:49:35.483Z,7.40
2023-04-08T22:52:39.737Z,7.53
2023-04-08T22:55:42.505Z,7.13
2023-04-08T22:58:45.376Z,7.57
2023-04-08T23:01:48.259Z,7.00
2023-04-08T23:04:54.686Z,7.15
2023-04-08T23:07:58.826Z,7.18
2023-04-08T23:11:01.637Z,7.22
2023-04-08T23:14:04.450Z,6.40
2023-04-08T23:17:07.212Z,7.28
2023-04-08T23:20:10.576Z,6.65
2023-04-08T23:23:14.640Z,7.10
2023-04-08T23:26:20.889Z,7.57
2023-04-08T23:29:23.712Z,6.97
2023-04-08T23:32:27.475Z,7.00
2023-04-08T23:35:30.584Z,6.55
2023-04-08T23:38:34.862Z,7.15
2023-04-08T23:41:37.624Z,6.75
2023-04-08T23:44:40.429Z,6.93
2023-04-08T23:47:43.248Z,7.30
2023-04-08T23:50:46.066Z,6.88
2023-04-08T23:53:51.742Z,7.18
2023-04-08T23:56:54.469Z,6.90
2023-04-08T23:59:58.605Z,6.80
